Time;durP1;ratioP1;P1;durP2;ratioP2;P2;SDS_P1;SDS_P2;PMS_P1;PMS_P2;Temp;Humidity;BMP_temperature;BMP_pressure;BME280_temperature;BME280_humidity;BME280_pressure;Samples;Min_cycle;Max_cycle;Signal;HPM_P1;HPM_P2
2021/12/30 00:02:05;;;;;;;41.40;21.02;;;;;;;7.73;87.52;99391.13;5087591;28;20039;-21
2021/12/30 00:04:30;;;;;;;41.90;21.52;;;;;;;7.74;87.78;99400.69;5087611;28;20874;-20
2021/12/30 00:06:56;;;;;;;38.78;21.23;;;;;;;7.58;87.79;99381.63;5087402;28;20032;-21
2021/12/30 00:09:21;;;;;;;39.20;20.83;;;;;;;7.78;87.32;99392.06;5087878;28;20032;-21
2021/12/30 00:11:47;;;;;;;39.60;20.95;;;;;;;7.67;86.79;99382.16;5087789;28;20069;-20
2021/12/30 00:14:13;;;;;;;38.70;20.23;;;;;;;7.90;86.90;99386.88;5073932;28;20032;-20
2021/12/30 00:16:39;;;;;;;41.47;21.42;;;;;;;7.77;86.17;99379.03;5091733;28;20071;-20
2021/12/30 00:19:05;;;;;;;38.97;20.00;;;;;;;7.88;86.54;99404.06;5091889;28;20423;-21
2021/12/30 00:21:30;;;;;;;36.80;19.60;;;;;;;7.82;87.08;99387.94;5073211;28;20039;-21
2021/12/30 00:23:55;;;;;;;34.58;19.35;;;;;;;7.80;87.45;99402.47;5091745;28;20024;-20
2021/12/30 00:26:21;;;;;;;37.10;18.92;;;;;;;7.89;86.40;99379.94;5091881;28;20047;-20
2021/12/30 00:28:47;;;;;;;37.45;17.88;;;;;;;7.81;87.06;99398.81;5091172;28;20051;-20
2021/12/30 00:31:12;;;;;;;38.70;19.85;;;;;;;7.95;86.73;99413.59;5091394;28;20059;-21
2021/12/30 00:33:38;;;;;;;37.00;20.42;;;;;;;7.97;86.96;99406.22;5072945;28;20837;-21
2021/12/30 00:36:06;;;;;;;37.08;20.42;;;;;;;8.01;86.60;99415.38;5091504;28;20035;-21
2021/12/30 00:38:32;;;;;;;40.08;21.42;;;;;;;8.12;85.59;99408.53;5073289;28;20429;-20
2021/12/30 00:40:57;;;;;;;38.92;20.02;;;;;;;8.14;85.47;99416.28;5091588;28;20032;-20
2021/12/30 00:43:23;;;;;;;40.55;19.83;;;;;;;8.21;85.21;99409.06;5091402;28;20043;-20
2021/12/30 00:45:48;;;;;;;34.30;19.25;;;;;;;8.03;86.17;99418.63;5091089;28;20028;-21
2021/12/30 00:48:14;;;;;;;35.22;19.63;;;;;;;8.08;85.71;99411.84;5091320;28;20031;-20
2021/12/30 00:50:40;;;;;;;36.30;19.38;;;;;;;7.95;86.48;99405.63;5072925;28;20597;-21
2021/12/30 00:53:05;;;;;;;37.90;21.13;;;;;;;8.20;85.74;99410.91;5091159;28;20032;-21
2021/12/30 00:55:31;;;;;;;52.15;29.30;;;;;;;8.13;85.52;99417.31;5090709;28;20097;-20
2021/12/30 00:57:56;;;;;;;48.60;26.38;;;;;;;7.84;86.86;99411.63;5090959;28;20494;-20
2021/12/30 01:00:22;;;;;;;38.42;21.83;;;;;;;7.50;88.28;99392.50;5090932;28;20032;-21
2021/12/30 01:02:47;;;;;;;53.03;28.65;;;;;;;7.66;88.00;99399.09;5090925;28;20044;-20
2021/12/30 01:05:13;;;;;;;43.55;24.98;;;;;;;7.48;88.94;99415.78;5090783;28;20408;-20
2021/12/30 01:07:39;;;;;;;35.17;20.00;;;;;;;7.34;89.45;99399.16;5090839;28;20028;-21
2021/12/30 01:10:05;;;;;;;39.67;20.73;;;;;;;7.44;88.94;99403.97;5090971;28;20062;-21
2021/12/30 01:12:30;;;;;;;46.65;24.10;;;;;;;7.37;88.73;99384.63;5072395;28;20035;-20
2021/12/30 01:14:56;;;;;;;36.08;20.85;;;;;;;7.48;88.91;99407.84;5090803;28;20035;-21
2021/12/30 01:17:44;;;;;;;37.92;21.00;;;;;;;7.63;88.59;99426.91;5072539;28;20062;-20
2021/12/30 01:20:08;;;;;;;40.90;22.35;;;;;;;7.56;88.78;99423.50;5089920;28;20134;-21
2021/12/30 01:22:34;;;;;;;40.40;23.05;;;;;;;7.75;88.38;99426.22;5072321;28;20032;-20
2021/12/30 01:25:00;;;;;;;37.03;23.55;;;;;;;7.63;88.33;99428.75;5090365;28;20031;-20
2021/12/30 01:27:25;;;;;;;40.28;22.75;;;;;;;7.79;87.59;99425.56;5071988;28;20039;-20
2021/12/30 01:29:51;;;;;;;39.30;22.75;;;;;;;7.83;87.28;99441.88;5090366;28;20113;-22
2021/12/30 01:32:16;;;;;;;38.22;21.38;;;;;;;7.77;87.42;99437.44;5090432;28;20031;-20
2021/12/30 01:34:42;;;;;;;37.60;21.30;;;;;;;7.86;87.22;99436.13;5090312;28;20031;-20
2021/12/30 01:37:09;;;;;;;38.75;22.50;;;;;;;7.45;88.53;99437.44;5090057;28;20048;-20
2021/12/30 01:39:37;;;;;;;36.30;21.40;;;;;;;7.32;89.30;99429.56;5089966;28;20024;-20
2021/12/30 01:42:03;;;;;;;37.85;21.90;;;;;;;7.59;89.39;99451.44;5072088;28;20035;-20
2021/12/30 01:44:29;;;;;;;36.55;20.60;;;;;;;7.68;87.92;99433.41;5072165;28;20036;-20
2021/12/30 01:46:54;;;;;;;35.00;20.73;;;;;;;7.60;87.27;99422.03;5089985;28;20024;-20
2021/12/30 01:49:21;;;;;;;32.63;19.70;;;;;;;7.51;88.75;99446.38;5089918;28;20034;-20
2021/12/30 01:51:48;;;;;;;34.83;18.80;;;;;;;7.59;88.45;99436.31;5071488;28;20031;-20
2021/12/30 01:54:13;;;;;;;33.63;19.25;;;;;;;7.73;88.26;99438.88;5089857;28;20024;-20
2021/12/30 01:56:39;;;;;;;31.70;19.30;;;;;;;7.56;88.06;99436.75;5089776;28;20039;-20
2021/12/30 01:59:04;;;;;;;31.58;18.05;;;;;;;7.39;89.22;99435.63;5089711;28;20036;-20
2021/12/30 02:01:30;;;;;;;35.17;18.60;;;;;;;7.71;87.27;99431.13;5089427;28;20028;-20
2021/12/30 02:03:55;;;;;;;32.80;18.40;;;;;;;7.43;88.18;99450.91;5071587;28;20026;-20
2021/12/30 02:06:21;;;;;;;35.60;18.75;;;;;;;7.21;89.83;99453.09;5071632;28;20068;-21
2021/12/30 02:08:46;;;;;;;37.35;20.45;;;;;;;6.99;91.43;99454.41;5089650;28;20032;-20
2021/12/30 02:11:12;;;;;;;35.58;19.27;;;;;;;6.91;92.29;99447.50;5089452;28;20059;-20
2021/12/30 02:13:37;;;;;;;36.42;18.08;;;;;;;6.90;92.25;99456.47;5054407;28;20165;-20
2021/12/30 02:16:03;;;;;;;32.95;16.50;;;;;;;6.83;93.08;99459.13;5089490;28;20039;-21
2021/12/30 02:18:29;;;;;;;34.65;17.83;;;;;;;6.95;92.98;99463.81;5089793;28;20020;-21
2021/12/30 02:20:58;;;;;;;35.63;18.42;;;;;;;6.97;92.14;99451.16;5089830;28;20051;-20
2021/12/30 02:23:31;;;;;;;33.05;16.77;;;;;;;6.78;93.41;99461.63;5089448;28;20028;-22
2021/12/30 02:26:07;;;;;;;31.45;16.52;;;;;;;6.72;94.14;99462.47;5089417;28;20028;-21
2021/12/30 02:28:34;;;;;;;28.17;14.65;;;;;;;6.73;94.32;99434.91;5089064;28;20040;-20
2021/12/30 02:31:02;;;;;;;20.17;10.73;;;;;;;6.99;92.39;99467.66;5070933;28;20127;-21
2021/12/30 02:33:27;;;;;;;23.10;12.13;;;;;;;6.96;92.42;99460.13;5070720;28;20040;-21
2021/12/30 02:35:53;;;;;;;24.05;12.68;;;;;;;7.16;91.70;99471.44;5070427;28;20038;-20
2021/12/30 02:38:18;;;;;;;25.73;12.48;;;;;;;6.98;91.72;99468.66;5089072;28;20108;-21
2021/12/30 02:40:49;;;;;;;27.50;13.13;;;;;;;7.11;90.97;99463.34;5089089;28;20032;-21
2021/12/30 02:43:22;;;;;;;20.52;11.10;;;;;;;7.47;89.37;99472.53;5071341;28;20065;-20
2021/12/30 02:45:47;;;;;;;27.20;15.00;;;;;;;7.43;88.67;99476.63;5071859;28;20024;-21
2021/12/30 02:48:18;;;;;;;21.02;11.45;;;;;;;7.47;88.24;99472.53;5089151;28;20042;-21
2021/12/30 02:50:44;;;;;;;20.27;11.15;;;;;;;7.31;88.37;99470.34;5088768;28;20028;-21
2021/12/30 02:53:10;;;;;;;23.85;11.57;;;;;;;7.36;88.64;99478.50;5089023;28;20100;-21
2021/12/30 02:55:36;;;;;;;43.85;20.13;;;;;;;7.60;87.41;99477.75;5088258;28;20028;-22
2021/12/30 02:58:01;;;;;;;69.93;30.63;;;;;;;7.87;85.67;99476.75;5088877;28;20024;-21
2021/12/30 03:00:27;;;;;;;96.82;38.95;;;;;;;7.73;86.17;99486.66;5088805;28;20035;-21
2021/12/30 03:02:53;;;;;;;91.07;36.22;;;;;;;7.85;85.06;99463.72;5088578;28;20031;-21
2021/12/30 03:05:20;;;;;;;107.13;42.05;;;;;;;7.92;85.41;99491.00;5088491;28;20480;-20
2021/12/30 03:07:45;;;;;;;85.78;35.38;;;;;;;7.50;87.06;99488.03;5088841;28;20109;-20
2021/12/30 03:10:16;;;;;;;113.18;42.85;;;;;;;7.43;87.61;99487.22;5070153;28;20036;-21
2021/12/30 03:12:42;;;;;;;105.82;39.38;;;;;;;7.38;87.44;99495.03;5088510;28;20539;-20
2021/12/30 03:15:11;;;;;;;53.45;22.77;;;;;;;7.47;87.21;99496.41;5088261;28;20032;-21
2021/12/30 03:17:39;;;;;;;40.33;19.75;;;;;;;7.53;87.10;99498.19;5088099;28;20032;-21
2021/12/30 03:20:09;;;;;;;37.67;15.93;;;;;;;7.67;86.25;99498.13;5070147;28;20036;-21
2021/12/30 03:22:36;;;;;;;19.30;8.25;;;;;;;7.69;85.08;99469.53;5088146;28;20032;-21
2021/12/30 03:25:01;;;;;;;19.77;8.68;;;;;;;7.73;85.10;99489.31;5070688;28;20039;-20
2021/12/30 03:27:27;;;;;;;17.67;9.38;;;;;;;7.92;84.62;99504.28;5087935;28;20119;-23
2021/12/30 03:29:53;;;;;;;14.93;8.18;;;;;;;7.99;84.06;99517.53;5070160;28;20172;-21
2021/12/30 03:32:18;;;;;;;13.70;6.88;;;;;;;8.15;83.56;99505.53;5087839;28;20032;-21
2021/12/30 03:34:44;;;;;;;12.15;6.22;;;;;;;8.10;83.72;99505.38;5088219;28;20416;-21
2021/12/30 03:37:09;;;;;;;14.95;7.05;;;;;;;8.24;83.25;99521.00;5088055;28;20081;-21
2021/12/30 03:39:35;;;;;;;13.10;6.38;;;;;;;7.89;84.78;99523.31;5052867;28;20039;-21
2021/12/30 03:42:00;;;;;;;12.80;6.80;;;;;;;7.69;85.38;99518.13;5069866;28;20483;-20
2021/12/30 03:44:26;;;;;;;11.75;5.80;;;;;;;7.43;86.71;99508.47;5087971;28;20377;-20
2021/12/30 03:46:51;;;;;;;8.32;4.25;;;;;;;7.38;86.88;99532.16;5087110;28;20491;-20
2021/12/30 03:49:16;;;;;;;5.80;2.35;;;;;;;7.33;87.13;99534.63;5087984;28;20089;-20
2021/12/30 03:51:42;;;;;;;6.30;2.40;;;;;;;7.23;87.79;99535.06;5087787;28;20020;-21
2021/12/30 03:54:08;;;;;;;3.80;2.00;;;;;;;7.28;87.47;99542.41;5069310;28;20024;-21
2021/12/30 03:56:35;;;;;;;5.18;2.00;;;;;;;7.01;87.73;99531.91;5087801;28;20503;-21
2021/12/30 03:59:00;;;;;;;5.03;1.80;;;;;;;6.87;87.85;99535.59;5087665;28;20032;-21
2021/12/30 04:01:28;;;;;;;5.45;2.30;;;;;;;6.93;88.26;99550.69;5087460;28;20060;-21
2021/12/30 04:03:53;;;;;;;7.13;2.30;;;;;;;6.77;88.17;99539.47;5087590;28;20028;-21
2021/12/30 04:06:19;;;;;;;7.32;3.45;;;;;;;6.85;88.38;99551.72;5087786;28;20032;-21
2021/12/30 04:08:44;;;;;;;6.78;2.85;;;;;;;6.86;88.76;99557.81;5087648;28;20046;-21
2021/12/30 04:11:10;;;;;;;6.20;2.78;;;;;;;6.91;88.23;99563.31;5069863;28;20036;-21
2021/12/30 04:13:35;;;;;;;5.47;1.95;;;;;;;6.86;88.01;99549.88;5069365;28;20043;-20
2021/12/30 04:16:01;;;;;;;2.13;1.20;;;;;;;6.72;88.00;99568.44;5069661;28;20379;-21
2021/12/30 04:18:26;;;;;;;1.92;1.02;;;;;;;6.66;89.07;99577.22;5069555;28;20496;-20
2021/12/30 04:20:52;;;;;;;2.47;1.30;;;;;;;6.59;89.34;99576.41;5087529;28;20039;-20
2021/12/30 04:23:18;;;;;;;1.65;0.80;;;;;;;6.51;89.81;99595.16;5069426;28;20028;-20
2021/12/30 04:25:43;;;;;;;2.03;1.00;;;;;;;6.80;88.70;99589.44;5087116;28;20040;-21
2021/12/30 04:28:09;;;;;;;1.35;0.60;;;;;;;7.03;88.02;99604.91;5087686;28;20032;-20
2021/12/30 04:30:36;;;;;;;2.05;1.13;;;;;;;7.31;86.43;99600.34;5087147;28;20412;-20
2021/12/30 04:33:01;;;;;;;2.30;0.93;;;;;;;6.86;87.98;99608.19;5087278;28;20032;-21
2021/12/30 04:35:27;;;;;;;1.58;0.70;;;;;;;6.61;89.41;99611.44;5086895;28;20035;-21
2021/12/30 04:37:52;;;;;;;2.47;0.90;;;;;;;6.42;90.92;99621.84;5087388;28;20032;-20
2021/12/30 04:40:18;;;;;;;1.88;1.10;;;;;;;6.46;90.91;99608.16;5087661;28;20464;-20
2021/12/30 04:42:43;;;;;;;8.43;4.68;;;;;;;6.71;89.63;99633.06;5087778;28;20681;-20
2021/12/30 04:45:10;;;;;;;44.65;25.25;;;;;;;6.68;89.93;99632.63;5086176;28;20032;-21
2021/12/30 04:47:38;;;;;;;9.98;3.97;;;;;;;6.64;90.78;99638.38;5087256;28;20028;-21
2021/12/30 04:50:05;;;;;;;3.53;1.50;;;;;;;6.90;88.81;99649.16;5087322;28;20032;-21
2021/12/30 04:52:30;;;;;;;10.13;5.28;;;;;;;7.14;87.47;99651.16;5087053;28;20031;-21
2021/12/30 04:54:56;;;;;;;9.40;4.72;;;;;;;7.02;88.10;99660.78;5087446;28;20028;-21
2021/12/30 04:57:21;;;;;;;7.18;3.70;;;;;;;6.79;89.66;99662.00;5087265;28;20041;-20
2021/12/30 04:59:47;;;;;;;8.70;4.60;;;;;;;7.00;88.68;99662.81;5090166;28;20039;-20
2021/12/30 05:02:13;;;;;;;9.00;4.78;;;;;;;6.97;88.74;99671.19;5072706;28;20042;-21
2021/12/30 05:04:38;;;;;;;19.02;10.57;;;;;;;7.04;88.43;99679.94;5090924;28;20574;-20
2021/12/30 05:07:04;;;;;;;27.77;15.02;;;;;;;7.10;88.23;99683.59;5090551;28;20039;-20
2021/12/30 05:09:31;;;;;;;14.40;8.93;;;;;;;6.91;88.12;99687.91;5090561;28;20438;-20
2021/12/30 05:11:57;;;;;;;10.68;5.30;;;;;;;6.91;88.54;99690.56;5090787;28;20492;-20
2021/12/30 05:14:23;;;;;;;10.80;5.60;;;;;;;7.00;88.01;99695.44;5090439;28;20036;-20
2021/12/30 05:16:49;;;;;;;10.93;5.88;;;;;;;6.83;88.81;99700.34;5091053;28;20120;-20
2021/12/30 05:19:14;;;;;;;14.10;7.07;;;;;;;6.99;88.46;99704.41;5090616;28;20442;-21
2021/12/30 05:21:40;;;;;;;11.90;6.72;;;;;;;6.88;89.19;99707.66;5090228;28;20036;-20
2021/12/30 05:24:06;;;;;;;18.67;8.65;;;;;;;6.77;89.29;99711.75;5090544;28;20035;-21
2021/12/30 05:26:31;;;;;;;18.27;8.07;;;;;;;7.00;88.25;99714.00;5090244;28;20758;-21
2021/12/30 05:28:58;;;;;;;17.67;9.30;;;;;;;6.49;89.14;99692.56;5090390;28;20479;-20
2021/12/30 05:31:23;;;;;;;22.20;16.75;;;;;;;6.42;89.88;99721.69;5090360;28;20027;-22
2021/12/30 05:33:49;;;;;;;22.98;16.02;;;;;;;6.75;88.14;99724.38;5072108;28;20059;-21
2021/12/30 05:36:14;;;;;;;23.10;11.32;;;;;;;6.70;88.24;99715.41;5090353;28;20043;-22
2021/12/30 05:38:40;;;;;;;84.05;30.52;;;;;;;6.67;86.33;99713.97;5090609;28;20036;-20
2021/12/30 05:41:05;;;;;;;30.52;11.90;;;;;;;6.78;86.55;99731.94;5090375;28;20028;-21
2021/12/30 05:43:31;;;;;;;14.70;6.88;;;;;;;6.69;86.48;99750.88;5089701;28;20064;-21
2021/12/30 05:45:56;;;;;;;8.63;4.32;;;;;;;6.66;84.66;99745.97;5090044;28;20024;-21
2021/12/30 05:48:22;;;;;;;15.98;9.25;;;;;;;6.71;85.72;99752.31;5071899;28;20038;-21
2021/12/30 05:50:47;;;;;;;11.75;6.75;;;;;;;6.83;85.16;99740.09;5089840;28;20042;-20
2021/12/30 05:53:13;;;;;;;13.38;7.70;;;;;;;6.81;85.27;99765.97;5071746;28;20039;-21
2021/12/30 05:55:38;;;;;;;11.10;7.47;;;;;;;6.31;87.64;99749.53;5071445;28;20028;-21
2021/12/30 05:58:04;;;;;;;9.57;6.10;;;;;;;6.41;86.63;99755.28;5089782;28;20070;-21
2021/12/30 06:00:30;;;;;;;12.30;7.78;;;;;;;6.75;85.01;99766.78;5089777;28;20071;-21
2021/12/30 06:02:56;;;;;;;14.18;7.68;;;;;;;6.94;84.15;99774.97;5090046;28;20066;-20
2021/12/30 06:05:21;;;;;;;18.20;9.43;;;;;;;6.76;85.52;99792.28;5089529;28;20517;-21
2021/12/30 06:07:47;;;;;;;17.38;9.35;;;;;;;6.44;86.92;99788.53;5089637;28;20445;-21
2021/12/30 06:10:12;;;;;;;19.90;13.88;;;;;;;6.70;86.28;99792.25;5070481;28;20480;-22
2021/12/30 06:12:38;;;;;;;13.45;8.20;;;;;;;6.72;84.78;99788.41;5089935;28;20043;-20
2021/12/30 06:15:04;;;;;;;10.95;7.07;;;;;;;6.87;84.93;99805.97;5089427;28;20911;-20
2021/12/30 06:17:29;;;;;;;13.05;7.38;;;;;;;6.90;85.47;99810.84;5089357;28;20028;-20
2021/12/30 06:19:55;;;;;;;22.75;14.02;;;;;;;7.28;83.43;99823.56;5089286;28;20035;-20
2021/12/30 06:22:20;;;;;;;24.10;15.02;;;;;;;7.40;82.35;99828.06;5089417;28;20042;-20
2021/12/30 06:24:46;;;;;;;20.40;12.95;;;;;;;7.19;82.59;99815.81;5071179;28;20028;-20
2021/12/30 06:27:11;;;;;;;17.65;9.43;;;;;;;7.46;81.37;99842.34;5070949;28;20032;-21
2021/12/30 06:29:37;;;;;;;16.73;9.48;;;;;;;7.19;83.47;99829.06;5088662;28;20428;-21
2021/12/30 06:32:03;;;;;;;15.13;8.80;;;;;;;7.33;82.33;99831.72;5089174;28;20415;-21
2021/12/30 06:34:29;;;;;;;16.10;10.10;;;;;;;7.53;81.77;99848.44;5070792;28;20020;-21
2021/12/30 06:36:54;;;;;;;15.48;9.30;;;;;;;7.43;81.11;99834.78;5089518;28;20024;-20
2021/12/30 06:39:20;;;;;;;13.75;8.50;;;;;;;7.44;81.58;99855.00;5089025;28;20032;-20
2021/12/30 06:41:45;;;;;;;17.52;10.43;;;;;;;7.25;82.43;99838.03;5088724;28;20035;-25
2021/12/30 06:44:11;;;;;;;21.38;15.45;;;;;;;7.23;82.91;99870.06;5088806;28;20469;-21
2021/12/30 06:46:36;;;;;;;20.42;15.60;;;;;;;7.23;83.12;99859.47;5088968;28;20156;-21
2021/12/30 06:49:07;;;;;;;19.20;13.45;;;;;;;7.30;82.62;99863.97;5089067;28;20043;-20
2021/12/30 06:51:35;;;;;;;21.67;12.45;;;;;;;7.24;82.95;99877.00;5088572;28;20526;-21
2021/12/30 06:54:01;;;;;;;42.88;20.13;;;;;;;7.21;83.16;99873.94;5088755;28;20032;-20
2021/12/30 06:56:27;;;;;;;24.80;11.85;;;;;;;7.12;83.31;99889.22;5089281;28;20054;-21
2021/12/30 06:58:52;;;;;;;19.75;8.90;;;;;;;6.77;84.77;99897.25;5088663;28;20404;-21
2021/12/30 07:01:18;;;;;;;25.90;10.73;;;;;;;6.97;84.38;99904.50;5088847;28;20039;-21
2021/12/30 07:03:43;;;;;;;33.63;15.27;;;;;;;7.14;84.23;99904.94;5088572;28;20028;-20
2021/12/30 07:06:09;;;;;;;54.20;25.63;;;;;;;7.12;83.70;99894.53;5070438;28;20024;-20
2021/12/30 07:08:35;;;;;;;24.13;13.85;;;;;;;7.36;83.27;99921.53;5088573;28;20036;-21
2021/12/30 07:11:00;;;;;;;31.63;14.27;;;;;;;7.11;83.20;99919.41;5088551;28;20024;-20
2021/12/30 07:13:26;;;;;;;29.83;16.58;;;;;;;7.32;83.30;99922.94;5088200;28;20155;-20
2021/12/30 07:15:51;;;;;;;18.13;12.15;;;;;;;7.38;83.56;99935.41;5088527;28;20028;-20
2021/12/30 07:18:17;;;;;;;48.80;40.40;;;;;;;7.05;84.54;99946.72;5088247;28;20036;-20
2021/12/30 07:20:42;;;;;;;43.50;27.80;;;;;;;6.96;85.70;99942.59;5069898;28;20196;-21
2021/12/30 07:23:08;;;;;;;37.60;26.35;;;;;;;6.79;87.06;99942.13;5088194;28;20032;-20
2021/12/30 07:25:33;;;;;;;30.92;18.52;;;;;;;6.76;86.21;99937.22;5069616;28;20028;-21
2021/12/30 07:27:59;;;;;;;34.10;19.48;;;;;;;6.75;87.33;99951.50;5088437;28;20040;-21
2021/12/30 07:30:25;;;;;;;33.70;21.42;;;;;;;7.09;86.63;99958.56;5088134;28;20564;-21
2021/12/30 07:32:50;;;;;;;34.97;19.05;;;;;;;6.75;86.15;99941.69;5088350;28;20408;-20
2021/12/30 07:35:17;;;;;;;31.63;19.75;;;;;;;6.71;87.86;99951.06;5088176;28;20089;-21
2021/12/30 07:37:42;;;;;;;34.50;19.48;;;;;;;6.58;88.68;99956.31;5087901;28;20036;-22
2021/12/30 07:40:08;;;;;;;26.48;14.40;;;;;;;6.71;88.07;99974.91;5088727;28;20046;-21
2021/12/30 07:42:33;;;;;;;23.52;14.13;;;;;;;6.69;88.50;99973.47;5088098;28;20396;-21
2021/12/30 07:44:59;;;;;;;25.45;14.27;;;;;;;6.78;87.44;99962.53;5088049;28;20028;-20
2021/12/30 07:47:26;;;;;;;39.47;20.33;;;;;;;7.18;86.20;99973.28;5087643;28;20037;-21
2021/12/30 07:49:51;;;;;;;50.28;32.92;;;;;;;7.14;86.25;99977.34;5087887;28;20028;-20
2021/12/30 07:52:17;;;;;;;45.30;27.30;;;;;;;7.51;84.99;99977.88;5087750;28;20031;-20
2021/12/30 07:54:44;;;;;;;20.45;12.80;;;;;;;7.41;84.66;99993.34;5087720;28;20036;-20
2021/12/30 07:57:10;;;;;;;20.90;11.52;;;;;;;7.50;85.01;99986.84;5087848;28;20055;-20
2021/12/30 07:59:36;;;;;;;17.42;11.15;;;;;;;7.43;85.03;99978.06;5087706;28;20177;-20
2021/12/30 08:02:01;;;;;;;25.20;15.90;;;;;;;7.67;84.23;100008.53;5069332;28;20536;-20
2021/12/30 08:04:27;;;;;;;15.20;9.40;;;;;;;7.61;84.70;99996.88;5087570;28;20035;-20
2021/12/30 08:06:52;;;;;;;8.93;4.50;;;;;;;7.75;83.59;100015.50;5087751;28;20173;-20
2021/12/30 08:09:18;;;;;;;6.13;2.90;;;;;;;7.87;83.38;100021.84;5069492;28;20658;-21
2021/12/30 08:11:43;;;;;;;6.50;2.70;;;;;;;7.87;84.11;100021.84;5087502;28;20032;-22
2021/12/30 08:14:09;;;;;;;6.00;2.75;;;;;;;7.62;84.65;100010.94;5087752;28;20032;-20
2021/12/30 08:16:34;;;;;;;5.75;2.92;;;;;;;7.77;84.01;100018.75;5087467;28;20411;-21
2021/12/30 08:19:00;;;;;;;7.00;3.40;;;;;;;7.77;83.99;100005.50;5087794;28;20411;-20
2021/12/30 08:21:25;;;;;;;7.35;3.97;;;;;;;7.84;83.29;100028.34;5087242;28;20032;-21
2021/12/30 08:23:51;;;;;;;7.75;3.70;;;;;;;8.04;82.80;100036.34;5087581;28;20412;-20
2021/12/30 08:26:19;;;;;;;8.38;3.83;;;;;;;7.60;84.43;100035.06;5086961;28;20048;-21
2021/12/30 08:28:45;;;;;;;6.60;3.92;;;;;;;7.82;82.80;100024.28;5087409;28;20059;-21
2021/12/30 08:31:11;;;;;;;6.28;3.53;;;;;;;7.84;83.31;100044.28;5067178;28;20481;-20
2021/12/30 08:33:36;;;;;;;7.35;3.92;;;;;;;7.98;82.59;100029.19;5068378;28;20032;-20
2021/12/30 08:36:02;;;;;;;8.57;3.80;;;;;;;7.64;83.54;100009.75;5071260;28;20024;-20
2021/12/30 08:38:27;;;;;;;6.18;3.40;;;;;;;7.81;83.34;100039.38;5071288;28;20480;-20
2021/12/30 08:40:53;;;;;;;7.03;3.65;;;;;;;7.97;82.18;100024.91;5071037;28;20036;-20
2021/12/30 08:43:18;;;;;;;6.43;3.40;;;;;;;8.09;81.92;100037.59;5071255;28;20466;-20
2021/12/30 08:45:45;;;;;;;7.30;3.55;;;;;;;8.15;81.80;100040.25;5070663;28;20759;-20
2021/12/30 08:48:11;;;;;;;6.80;4.00;;;;;;;8.16;81.90;100033.09;5069802;28;20036;-21
2021/12/30 08:50:36;;;;;;;6.28;3.30;;;;;;;8.24;82.30;100048.84;5070906;28;20044;-20
2021/12/30 08:53:02;;;;;;;7.50;3.45;;;;;;;8.35;82.40;100053.53;5070990;28;20455;-22
2021/12/30 08:55:28;;;;;;;6.30;3.38;;;;;;;8.50;81.28;100055.19;5070614;28;20761;-21
2021/12/30 08:57:54;;;;;;;7.82;4.10;;;;;;;8.60;80.59;100060.91;5071148;28;20043;-21
2021/12/30 09:00:27;;;;;;;6.80;3.20;;;;;;;8.51;80.60;100057.66;5070843;28;20495;-20
2021/12/30 09:02:54;;;;;;;6.30;2.78;;;;;;;8.39;81.04;100065.38;5070822;28;20032;-20
2021/12/30 09:05:20;;;;;;;3.08;1.73;;;;;;;8.38;80.83;100062.97;5069414;28;20036;-21
2021/12/30 09:07:46;;;;;;;3.33;1.95;;;;;;;8.36;80.95;100071.13;5070522;28;20097;-21
2021/12/30 09:10:13;;;;;;;6.07;1.95;;;;;;;8.15;81.86;100066.00;5070718;28;20048;-21
2021/12/30 09:12:41;;;;;;;16.27;9.55;;;;;;;8.51;81.33;100072.78;5070382;28;20036;-21
2021/12/30 09:15:06;;;;;;;3.97;1.98;;;;;;;8.59;81.39;100068.06;5070468;28;20032;-21
2021/12/30 09:17:32;;;;;;;3.42;1.50;;;;;;;8.49;79.50;100058.88;5070296;28;20410;-21
2021/12/30 09:19:57;;;;;;;3.38;1.70;;;;;;;8.33;79.74;100063.53;5070551;28;20024;-21
2021/12/30 09:22:23;;;;;;;5.03;2.13;;;;;;;8.03;81.86;100055.16;5070419;28;20028;-20
2021/12/30 09:24:49;;;;;;;6.45;2.65;;;;;;;8.19;81.69;100081.34;5070509;28;20071;-20
2021/12/30 09:27:14;;;;;;;5.30;2.70;;;;;;;8.14;82.51;100082.97;5070448;28;20032;-21
2021/12/30 09:29:40;;;;;;;8.23;4.78;;;;;;;8.15;81.61;100084.59;5077605;28;20496;-20
2021/12/30 09:32:06;;;;;;;8.82;5.38;;;;;;;7.92;82.45;100069.84;5090252;28;20074;-21
2021/12/30 09:34:31;;;;;;;8.43;4.68;;;;;;;7.90;83.67;100060.44;5090538;28;20484;-21
2021/12/30 09:36:56;;;;;;;19.13;11.77;;;;;;;7.92;83.95;100075.16;5090565;28;20468;-20
2021/12/30 09:39:22;;;;;;;14.63;8.18;;;;;;;8.13;83.78;100076.00;5090404;28;20043;-20
2021/12/30 09:41:48;;;;;;;11.63;7.47;;;;;;;8.33;82.31;100082.16;5090080;28;20031;-20
2021/12/30 09:44:15;;;;;;;17.58;11.20;;;;;;;8.29;82.91;100067.63;5071458;28;20085;-21
2021/12/30 09:46:40;;;;;;;14.45;8.30;;;;;;;8.11;82.85;100078.03;5089717;28;20423;-20
2021/12/30 09:49:07;;;;;;;9.68;6.90;;;;;;;8.40;81.85;100077.66;5090045;28;20035;-21
2021/12/30 09:51:33;;;;;;;9.55;6.20;;;;;;;8.35;81.47;100061.50;5089698;28;20036;-21
2021/12/30 09:53:58;;;;;;;17.70;7.10;;;;;;;8.24;82.22;100072.75;5089834;28;20085;-20
2021/12/30 09:56:24;;;;;;;22.00;10.10;;;;;;;8.38;82.12;100069.09;5089849;28;20028;-21
2021/12/30 09:58:50;;;;;;;29.92;11.38;;;;;;;8.31;80.53;100072.75;5089981;28;20028;-21
2021/12/30 10:01:15;;;;;;;19.42;8.73;;;;;;;8.20;82.40;100093.59;5090088;28;20856;-20
2021/12/30 10:03:42;;;;;;;18.90;8.32;;;;;;;8.21;80.58;100087.28;5089823;28;20031;-21
2021/12/30 10:06:13;;;;;;;37.10;13.18;;;;;;;8.00;81.69;100092.75;5089518;28;20060;-20
2021/12/30 10:08:42;;;;;;;24.70;10.30;;;;;;;8.14;81.83;100085.63;5089905;28;20085;-20
2021/12/30 10:11:12;;;;;;;14.98;8.48;;;;;;;8.00;80.60;100071.50;5089832;28;20537;-21
2021/12/30 10:13:41;;;;;;;15.57;8.02;;;;;;;7.73;80.50;100094.50;5089489;28;20487;-20
2021/12/30 10:16:10;;;;;;;15.95;8.40;;;;;;;7.66;81.84;100097.13;5089604;28;20053;-20
2021/12/30 10:18:46;;;;;;;17.00;8.88;;;;;;;7.98;82.08;100108.88;5071341;28;20416;-21
2021/12/30 10:21:23;;;;;;;17.00;8.82;;;;;;;8.18;80.88;100094.81;5089481;28;20744;-20
2021/12/30 10:23:50;;;;;;;18.17;9.80;;;;;;;8.09;81.29;100080.91;5089647;28;20046;-21
2021/12/30 10:26:16;;;;;;;18.75;9.40;;;;;;;8.24;80.42;100083.38;5089206;28;20032;-20
2021/12/30 10:28:44;;;;;;;21.10;10.07;;;;;;;7.95;80.98;100092.53;5089227;28;20063;-21
2021/12/30 10:31:12;;;;;;;19.75;8.68;;;;;;;7.84;80.79;100109.84;5071201;28;20044;-21
2021/12/30 10:33:47;;;;;;;;;;;;;;;7.92;82.33;100107.00;5089240;28;20067;-21
2021/12/30 10:36:17;;;;;;;14.30;8.02;;;;;;;8.04;81.85;100105.41;5088879;28;19916;-21
2021/12/30 10:38:42;;;;;;;13.75;7.30;;;;;;;8.12;81.59;100095.63;5089401;28;20028;-21
2021/12/30 10:41:08;;;;;;;11.60;6.97;;;;;;;8.15;81.65;100117.31;5089104;28;20035;-20
2021/12/30 10:46:15;;;;;;;8.90;5.00;;;;;;;8.14;81.16;100130.78;5089142;28;20484;-20
2021/12/30 10:49:05;;;;;;;8.98;4.78;;;;;;;8.28;80.93;100131.63;5088870;28;20623;-21
2021/12/30 10:51:48;;;;;;;10.18;5.30;;;;;;;8.15;81.97;100132.41;5080792;28;20058;-21
2021/12/30 10:54:25;;;;;;;9.73;4.90;;;;;;;8.07;80.85;100130.75;5089023;28;20032;-21
2021/12/30 10:57:05;;;;;;;10.35;5.45;;;;;;;8.21;80.48;100123.63;5088294;28;20047;-20
2021/12/30 10:59:36;;;;;;;11.10;5.85;;;;;;;8.25;80.90;100135.47;5088551;28;20032;-20
2021/12/30 11:02:12;;;;;;;18.38;9.00;;;;;;;8.04;80.62;100118.69;5088965;28;20024;-21
2021/12/30 11:04:40;;;;;;;21.65;10.50;;;;;;;8.33;80.67;100135.28;5071426;28;20089;-22
2021/12/30 11:07:10;;;;;;;23.40;9.60;;;;;;;8.38;80.31;100127.53;5088454;28;20034;-21
2021/12/30 11:09:36;;;;;;;17.38;8.55;;;;;;;8.29;80.50;100128.75;5088544;28;20571;-20
2021/12/30 11:12:04;;;;;;;11.23;6.13;;;;;;;8.27;79.98;100145.91;5088601;28;20024;-21
2021/12/30 11:14:32;;;;;;;57.17;32.72;;;;;;;8.36;80.79;100124.28;5070348;28;20032;-21
2021/12/30 11:17:09;;;;;;;39.75;23.27;;;;;;;8.61;79.97;100147.63;5088269;28;20105;-22
2021/12/30 11:19:39;;;;;;;50.13;21.83;;;;;;;8.23;79.03;100137.53;5088127;28;20036;-21
2021/12/30 11:22:08;;;;;;;27.88;15.55;;;;;;;8.25;79.17;100154.06;5088265;28;20042;-21
2021/12/30 11:24:33;;;;;;;;;;;;;;;8.40;78.47;100161.91;5088976;28;20480;-21
2021/12/30 11:26:59;;;;;;;12.23;7.57;;;;;;;8.36;79.49;100156.16;5088004;28;19919;-21
2021/12/30 11:29:24;;;;;;;9.23;5.35;;;;;;;8.35;79.29;100159.00;5087685;28;20519;-21